sensor_id;sensor_type;location;lat;lon;timestamp;temperature;humidity
26757;DHT22;23848;49.798;10.228;2024-02-15T00:00:40;10.50;99.90
26757;DHT22;23848;49.798;10.228;2024-02-15T00:03:20;10.50;99.90
26757;DHT22;23848;49.798;10.228;2024-02-15T00:05:49;10.50;99.90
26757;DHT22;23848;49.798;10.228;2024-02-15T00:08:41;10.40;99.90
26757;DHT22;23848;49.798;10.228;2024-02-15T00:11:09;10.50;99.90
26757;DHT22;23848;49.798;10.228;2024-02-15T00:13:42;10.50;99.90
26757;DHT22;23848;49.798;10.228;2024-02-15T00:16:24;10.50;99.90
26757;DHT22;23848;49.798;10.228;2024-02-15T00:18:55;10.40;99.90
26757;DHT22;23848;49.798;10.228;2024-02-15T00:22:01;10.50;99.90
26757;DHT22;23848;49.798;10.228;2024-02-15T00:24:27;10.40;99.90
26757;DHT22;23848;49.798;10.228;2024-02-15T00:27:03;10.50;99.90
26757;DHT22;23848;49.798;10.228;2024-02-15T00:29:36;10.40;99.90
26757;DHT22;23848;49.798;10.228;2024-02-15T00:32:13;10.40;99.90
26757;DHT22;23848;49.798;10.228;2024-02-15T00:34:50;10.50;99.90
26757;DHT22;23848;49.798;10.228;2024-02-15T00:37:46;10.40;99.90
26757;DHT22;23848;49.798;10.228;2024-02-15T00:40:34;10.50;99.90
26757;DHT22;23848;49.798;10.228;2024-02-15T00:43:15;10.50;99.90
26757;DHT22;23848;49.798;10.228;2024-02-15T00:46:08;10.50;99.90
26757;DHT22;23848;49.798;10.228;2024-02-15T00:48:53;10.50;99.90
26757;DHT22;23848;49.798;10.228;2024-02-15T00:51:35;10.50;99.90
26757;DHT22;23848;49.798;10.228;2024-02-15T00:59:40;10.50;99.90
26757;DHT22;23848;49.798;10.228;2024-02-15T01:08:10;10.40;99.90
26757;DHT22;23848;49.798;10.228;2024-02-15T01:10:51;10.40;99.90
26757;DHT22;23848;49.798;10.228;2024-02-15T01:13:25;10.30;99.90
26757;DHT22;23848;49.798;10.228;2024-02-15T01:16:08;10.30;99.90
26757;DHT22;23848;49.798;10.228;2024-02-15T01:18:56;10.30;99.90
26757;DHT22;23848;49.798;10.228;2024-02-15T01:21:50;10.30;99.90
26757;DHT22;23848;49.798;10.228;2024-02-15T01:24:35;10.30;99.90
26757;DHT22;23848;49.798;10.228;2024-02-15T01:27:18;10.30;99.90
26757;DHT22;23848;49.798;10.228;2024-02-15T01:32:32;10.40;99.90
26757;DHT22;23848;49.798;10.228;2024-02-15T01:35:15;10.40;99.90
26757;DHT22;23848;49.798;10.228;2024-02-15T01:37:52;10.30;99.90
26757;DHT22;23848;49.798;10.228;2024-02-15T01:40:25;10.30;99.90
26757;DHT22;23848;49.798;10.228;2024-02-15T01:42:59;10.30;99.90
26757;DHT22;23848;49.798;10.228;2024-02-15T01:45:51;10.30;99.90
26757;DHT22;23848;49.798;10.228;2024-02-15T01:51:11;10.30;99.90
26757;DHT22;23848;49.798;10.228;2024-02-15T01:53:54;10.30;99.90
26757;DHT22;23848;49.798;10.228;2024-02-15T01:56:31;10.30;99.90
26757;DHT22;23848;49.798;10.228;2024-02-15T01:59:16;10.30;99.90
26757;DHT22;23848;49.798;10.228;2024-02-15T02:01:57;10.30;99.90
26757;DHT22;23848;49.798;10.228;2024-02-15T02:04:45;10.30;99.90
26757;DHT22;23848;49.798;10.228;2024-02-15T02:07:26;10.30;99.90
26757;DHT22;23848;49.798;10.228;2024-02-15T02:10:02;10.20;99.90
26757;DHT22;23848;49.798;10.228;2024-02-15T02:12:38;10.30;99.90
26757;DHT22;23848;49.798;10.228;2024-02-15T02:15:36;10.20;99.90
26757;DHT22;23848;49.798;10.228;2024-02-15T02:18:09;10.30;99.90
26757;DHT22;23848;49.798;10.228;2024-02-15T02:20:48;10.20;99.90
26757;DHT22;23848;49.798;10.228;2024-02-15T02:23:28;10.20;99.90
26757;DHT22;23848;49.798;10.228;2024-02-15T02:26:08;10.20;99.90
26757;DHT22;23848;49.798;10.228;2024-02-15T02:28:45;10.20;99.90
26757;DHT22;23848;49.798;10.228;2024-02-15T02:31:23;10.10;99.90
26757;DHT22;23848;49.798;10.228;2024-02-15T02:33:55;10.10;99.90
26757;DHT22;23848;49.798;10.228;2024-02-15T02:36:36;10.10;99.90
26757;DHT22;23848;49.798;10.228;2024-02-15T02:39:19;10.10;99.90
26757;DHT22;23848;49.798;10.228;2024-02-15T02:42:23;10.10;99.90
26757;DHT22;23848;49.798;10.228;2024-02-15T02:45:00;10.10;99.90
26757;DHT22;23848;49.798;10.228;2024-02-15T02:47:37;10.00;99.90
26757;DHT22;23848;49.798;10.228;2024-02-15T02:50:09;10.00;99.90
26757;DHT22;23848;49.798;10.228;2024-02-15T02:52:42;10.00;99.90
26757;DHT22;23848;49.798;10.228;2024-02-15T02:55:25;10.00;99.90
26757;DHT22;23848;49.798;10.228;2024-02-15T02:58:10;10.00;99.90
26757;DHT22;23848;49.798;10.228;2024-02-15T03:00:52;10.00;99.90
26757;DHT22;23848;49.798;10.228;2024-02-15T03:03:35;9.90;99.90
26757;DHT22;23848;49.798;10.228;2024-02-15T03:06:11;10.00;99.90
26757;DHT22;23848;49.798;10.228;2024-02-15T03:08:51;10.00;99.90
26757;DHT22;23848;49.798;10.228;2024-02-15T03:11:27;9.90;99.90
26757;DHT22;23848;49.798;10.228;2024-02-15T03:14:11;9.90;99.90
26757;DHT22;23848;49.798;10.228;2024-02-15T03:16:58;9.90;99.90
26757;DHT22;23848;49.798;10.228;2024-02-15T03:19:33;9.90;99.90
26757;DHT22;23848;49.798;10.228;2024-02-15T03:22:27;9.90;99.90
26757;DHT22;23848;49.798;10.228;2024-02-15T03:25:12;10.00;99.90
26757;DHT22;23848;49.798;10.228;2024-02-15T03:27:56;9.90;99.90
26757;DHT22;23848;49.798;10.228;2024-02-15T03:30:32;9.90;99.90
26757;DHT22;23848;49.798;10.228;2024-02-15T03:33:20;9.90;99.90
26757;DHT22;23848;49.798;10.228;2024-02-15T03:35:58;9.90;99.90
26757;DHT22;23848;49.798;10.228;2024-02-15T03:38:31;9.90;99.90
26757;DHT22;23848;49.798;10.228;2024-02-15T03:41:11;9.90;99.90
26757;DHT22;23848;49.798;10.228;2024-02-15T03:43:46;9.80;99.90
26757;DHT22;23848;49.798;10.228;2024-02-15T03:46:18;9.90;99.90
26757;DHT22;23848;49.798;10.228;2024-02-15T03:48:46;9.80;99.90
26757;DHT22;23848;49.798;10.228;2024-02-15T03:51:24;9.90;99.90
26757;DHT22;23848;49.798;10.228;2024-02-15T03:53:55;9.90;99.90
26757;DHT22;23848;49.798;10.228;2024-02-15T03:56:27;9.80;99.90
26757;DHT22;23848;49.798;10.228;2024-02-15T03:59:05;9.80;99.90
26757;DHT22;23848;49.798;10.228;2024-02-15T04:01:36;9.80;99.90
26757;DHT22;23848;49.798;10.228;2024-02-15T04:04:11;9.90;99.90
26757;DHT22;23848;49.798;10.228;2024-02-15T04:06:43;9.80;99.90
26757;DHT22;23848;49.798;10.228;2024-02-15T04:09:16;9.80;99.90
26757;DHT22;23848;49.798;10.228;2024-02-15T04:11:45;9.80;99.90
26757;DHT22;23848;49.798;10.228;2024-02-15T04:14:20;9.80;99.90
26757;DHT22;23848;49.798;10.228;2024-02-15T04:17:00;9.80;99.90
26757;DHT22;23848;49.798;10.228;2024-02-15T04:19:43;9.80;99.90
26757;DHT22;23848;49.798;10.228;2024-02-15T04:22:16;9.70;99.90
26757;DHT22;23848;49.798;10.228;2024-02-15T04:24:56;9.70;99.90
26757;DHT22;23848;49.798;10.228;2024-02-15T04:27:29;9.70;99.90
26757;DHT22;23848;49.798;10.228;2024-02-15T04:30:02;9.70;99.90
26757;DHT22;23848;49.798;10.228;2024-02-15T04:32:41;9.60;99.90
26757;DHT22;23848;49.798;10.228;2024-02-15T04:35:22;9.60;99.90
26757;DHT22;23848;49.798;10.228;2024-02-15T04:37:58;9.60;99.90
26757;DHT22;23848;49.798;10.228;2024-02-15T04:40:33;9.60;99.90
26757;DHT22;23848;49.798;10.228;2024-02-15T04:43:34;9.60;99.90
26757;DHT22;23848;49.798;10.228;2024-02-15T04:46:13;9.60;99.90
26757;DHT22;23848;49.798;10.228;2024-02-15T04:48:46;9.60;99.90
26757;DHT22;23848;49.798;10.228;2024-02-15T04:51:32;9.60;99.90
26757;DHT22;23848;49.798;10.228;2024-02-15T04:54:08;9.60;99.90
26757;DHT22;23848;49.798;10.228;2024-02-15T04:56:40;9.60;99.90
26757;DHT22;23848;49.798;10.228;2024-02-15T04:59:21;9.60;99.90
26757;DHT22;23848;49.798;10.228;2024-02-15T05:01:58;9.60;99.90
26757;DHT22;23848;49.798;10.228;2024-02-15T05:04:45;9.60;99.90
26757;DHT22;23848;49.798;10.228;2024-02-15T05:07:26;9.70;99.90
26757;DHT22;23848;49.798;10.228;2024-02-15T05:10:10;9.60;99.90
26757;DHT22;23848;49.798;10.228;2024-02-15T05:12:45;9.70;99.90
26757;DHT22;23848;49.798;10.228;2024-02-15T05:15:26;9.70;99.90
26757;DHT22;23848;49.798;10.228;2024-02-15T05:18:06;9.70;99.90
26757;DHT22;23848;49.798;10.228;2024-02-15T05:21:28;9.70;99.90
26757;DHT22;23848;49.798;10.228;2024-02-15T05:26:44;9.60;99.90
26757;DHT22;23848;49.798;10.228;2024-02-15T05:29:32;9.60;99.90
26757;DHT22;23848;49.798;10.228;2024-02-15T05:32:08;9.70;99.90
26757;DHT22;23848;49.798;10.228;2024-02-15T05:37:31;9.60;99.90
26757;DHT22;23848;49.798;10.228;2024-02-15T05:40:09;9.60;99.90
26757;DHT22;23848;49.798;10.228;2024-02-15T05:42:55;9.70;99.90
26757;DHT22;23848;49.798;10.228;2024-02-15T05:45:30;9.60;99.90
26757;DHT22;23848;49.798;10.228;2024-02-15T05:48:10;9.60;99.90
26757;DHT22;23848;49.798;10.228;2024-02-15T05:50:42;9.50;99.90
26757;DHT22;23848;49.798;10.228;2024-02-15T05:53:17;9.50;99.90
26757;DHT22;23848;49.798;10.228;2024-02-15T05:55:51;9.50;99.90
26757;DHT22;23848;49.798;10.228;2024-02-15T05:58:31;9.50;99.90
26757;DHT22;23848;49.798;10.228;2024-02-15T06:01:08;9.50;99.90
26757;DHT22;23848;49.798;10.228;2024-02-15T06:03:46;9.50;99.90
26757;DHT22;23848;49.798;10.228;2024-02-15T06:06:20;9.50;99.90
26757;DHT22;23848;49.798;10.228;2024-02-15T06:09:09;9.50;99.90
26757;DHT22;23848;49.798;10.228;2024-02-15T06:11:48;9.50;99.90
26757;DHT22;23848;49.798;10.228;2024-02-15T06:14:31;9.50;99.90
26757;DHT22;23848;49.798;10.228;2024-02-15T06:17:16;9.50;99.90
26757;DHT22;23848;49.798;10.228;2024-02-15T06:20:04;9.50;99.90
26757;DHT22;23848;49.798;10.228;2024-02-15T06:22:38;9.50;99.90
26757;DHT22;23848;49.798;10.228;2024-02-15T06:25:12;9.50;99.90
26757;DHT22;23848;49.798;10.228;2024-02-15T06:27:46;9.40;99.90
26757;DHT22;23848;49.798;10.228;2024-02-15T06:30:31;9.50;99.90
26757;DHT22;23848;49.798;10.228;2024-02-15T06:33:32;9.50;99.90
26757;DHT22;23848;49.798;10.228;2024-02-15T06:36:24;9.50;99.90
26757;DHT22;23848;49.798;10.228;2024-02-15T06:41:46;9.50;99.90
26757;DHT22;23848;49.798;10.228;2024-02-15T06:44:20;9.40;99.90
26757;DHT22;23848;49.798;10.228;2024-02-15T06:46:53;9.50;99.90
26757;DHT22;23848;49.798;10.228;2024-02-15T06:49:37;9.50;99.90
26757;DHT22;23848;49.798;10.228;2024-02-15T06:52:25;9.50;99.90
26757;DHT22;23848;49.798;10.228;2024-02-15T06:55:12;9.50;99.90
26757;DHT22;23848;49.798;10.228;2024-02-15T06:57:51;9.50;99.90
26757;DHT22;23848;49.798;10.228;2024-02-15T07:00:24;9.50;99.90
26757;DHT22;23848;49.798;10.228;2024-02-15T07:03:07;9.50;99.90
26757;DHT22;23848;49.798;10.228;2024-02-15T07:06:01;9.50;99.90
26757;DHT22;23848;49.798;10.228;2024-02-15T07:08:47;9.60;99.90
26757;DHT22;23848;49.798;10.228;2024-02-15T07:11:25;9.60;99.90
26757;DHT22;23848;49.798;10.228;2024-02-15T07:14:08;9.60;99.90
26757;DHT22;23848;49.798;10.228;2024-02-15T07:16:58;9.60;99.90
26757;DHT22;23848;49.798;10.228;2024-02-15T07:19:34;9.70;99.90
26757;DHT22;23848;49.798;10.228;2024-02-15T07:22:17;9.70;99.90
26757;DHT22;23848;49.798;10.228;2024-02-15T07:25:02;9.80;99.90
26757;DHT22;23848;49.798;10.228;2024-02-15T07:48:50;10.10;99.90
26757;DHT22;23848;49.798;10.228;2024-02-15T07:59:50;10.40;99.90
26757;DHT22;23848;49.798;10.228;2024-02-15T08:02:50;10.50;99.90
26757;DHT22;23848;49.798;10.228;2024-02-15T08:05:44;10.60;99.90
26757;DHT22;23848;49.798;10.228;2024-02-15T08:08:40;10.70;99.90
26757;DHT22;23848;49.798;10.228;2024-02-15T08:11:16;10.80;99.90
26757;DHT22;23848;49.798;10.228;2024-02-15T08:14:10;10.80;99.90
26757;DHT22;23848;49.798;10.228;2024-02-15T08:16:42;10.90;99.90
26757;DHT22;23848;49.798;10.228;2024-02-15T08:19:15;10.90;99.90
26757;DHT22;23848;49.798;10.228;2024-02-15T08:21:50;11.00;99.90
26757;DHT22;23848;49.798;10.228;2024-02-15T08:24:24;11.10;99.90
26757;DHT22;23848;49.798;10.228;2024-02-15T08:27:00;11.10;99.90
26757;DHT22;23848;49.798;10.228;2024-02-15T08:32:16;11.30;99.90
26757;DHT22;23848;49.798;10.228;2024-02-15T08:34:54;11.40;99.90
26757;DHT22;23848;49.798;10.228;2024-02-15T08:37:34;11.50;99.90
26757;DHT22;23848;49.798;10.228;2024-02-15T08:42:38;11.60;99.90
26757;DHT22;23848;49.798;10.228;2024-02-15T08:45:33;11.60;99.90
26757;DHT22;23848;49.798;10.228;2024-02-15T08:48:18;11.70;99.90
26757;DHT22;23848;49.798;10.228;2024-02-15T08:51:00;11.70;99.90
26757;DHT22;23848;49.798;10.228;2024-02-15T16:54:40;12.90;99.90
26757;DHT22;23848;49.798;10.228;2024-02-15T16:57:11;12.80;99.90
26757;DHT22;23848;49.798;10.228;2024-02-15T16:59:44;12.80;99.90
26757;DHT22;23848;49.798;10.228;2024-02-15T17:02:40;12.60;99.90
26757;DHT22;23848;49.798;10.228;2024-02-15T17:05:26;12.60;99.90
26757;DHT22;23848;49.798;10.228;2024-02-15T17:07:55;12.50;99.90
26757;DHT22;23848;49.798;10.228;2024-02-15T17:10:25;12.40;99.90
26757;DHT22;23848;49.798;10.228;2024-02-15T17:12:56;12.40;99.90
26757;DHT22;23848;49.798;10.228;2024-02-15T17:15:28;12.40;99.90
26757;DHT22;23848;49.798;10.228;2024-02-15T17:17:58;12.30;99.90
26757;DHT22;23848;49.798;10.228;2024-02-15T17:20:27;12.20;99.90
26757;DHT22;23848;49.798;10.228;2024-02-15T17:22:55;12.20;99.90
26757;DHT22;23848;49.798;10.228;2024-02-15T17:25:27;12.10;99.90
26757;DHT22;23848;49.798;10.228;2024-02-15T17:27:58;12.00;99.90
26757;DHT22;23848;49.798;10.228;2024-02-15T17:30:27;12.00;99.90
26757;DHT22;23848;49.798;10.228;2024-02-15T17:32:55;12.00;99.90
26757;DHT22;23848;49.798;10.228;2024-02-15T17:35:35;11.90;99.90
26757;DHT22;23848;49.798;10.228;2024-02-15T17:38:03;11.80;99.90
26757;DHT22;23848;49.798;10.228;2024-02-15T17:40:33;11.70;99.90
26757;DHT22;23848;49.798;10.228;2024-02-15T17:43:04;11.70;99.90
26757;DHT22;23848;49.798;10.228;2024-02-15T17:45:38;11.70;99.90
26757;DHT22;23848;49.798;10.228;2024-02-15T17:48:06;11.50;99.90
26757;DHT22;23848;49.798;10.228;2024-02-15T17:50:36;11.40;99.90
26757;DHT22;23848;49.798;10.228;2024-02-15T17:53:07;11.40;99.90
26757;DHT22;23848;49.798;10.228;2024-02-15T17:55:40;11.40;99.90
26757;DHT22;23848;49.798;10.228;2024-02-15T17:58:14;11.40;99.90
26757;DHT22;23848;49.798;10.228;2024-02-15T18:00:42;11.40;99.90
26757;DHT22;23848;49.798;10.228;2024-02-15T18:03:11;11.40;99.90
26757;DHT22;23848;49.798;10.228;2024-02-15T18:05:40;11.30;99.90
26757;DHT22;23848;49.798;10.228;2024-02-15T18:08:13;11.20;99.90
26757;DHT22;23848;49.798;10.228;2024-02-15T18:10:45;11.20;99.90
26757;DHT22;23848;49.798;10.228;2024-02-15T18:13:16;11.10;99.90
26757;DHT22;23848;49.798;10.228;2024-02-15T18:15:45;11.00;99.90
26757;DHT22;23848;49.798;10.228;2024-02-15T18:18:19;10.90;99.90
26757;DHT22;23848;49.798;10.228;2024-02-15T18:20:49;10.70;99.90
26757;DHT22;23848;49.798;10.228;2024-02-15T18:23:18;10.60;99.90
26757;DHT22;23848;49.798;10.228;2024-02-15T18:25:50;10.50;99.90
26757;DHT22;23848;49.798;10.228;2024-02-15T18:28:24;10.50;99.90
26757;DHT22;23848;49.798;10.228;2024-02-15T18:30:55;10.40;99.90
26757;DHT22;23848;49.798;10.228;2024-02-15T18:33:25;10.40;99.90
26757;DHT22;23848;49.798;10.228;2024-02-15T18:35:58;10.40;99.90
26757;DHT22;23848;49.798;10.228;2024-02-15T18:38:26;10.30;99.90
26757;DHT22;23848;49.798;10.228;2024-02-15T18:40:57;10.30;99.90
26757;DHT22;23848;49.798;10.228;2024-02-15T18:43:26;10.30;99.90
26757;DHT22;23848;49.798;10.228;2024-02-15T18:45:55;10.10;99.90
26757;DHT22;23848;49.798;10.228;2024-02-15T18:48:23;10.00;99.90
26757;DHT22;23848;49.798;10.228;2024-02-15T18:50:52;9.90;99.90
26757;DHT22;23848;49.798;10.228;2024-02-15T18:53:20;9.80;99.90
26757;DHT22;23848;49.798;10.228;2024-02-15T18:55:49;9.70;99.90
26757;DHT22;23848;49.798;10.228;2024-02-15T18:58:23;9.60;99.90
26757;DHT22;23848;49.798;10.228;2024-02-15T19:00:54;9.60;99.90
26757;DHT22;23848;49.798;10.228;2024-02-15T19:03:24;9.50;99.90
26757;DHT22;23848;49.798;10.228;2024-02-15T19:05:53;9.50;99.90
26757;DHT22;23848;49.798;10.228;2024-02-15T19:08:21;9.50;99.90
26757;DHT22;23848;49.798;10.228;2024-02-15T19:10:49;9.40;99.90
26757;DHT22;23848;49.798;10.228;2024-02-15T19:13:18;9.40;99.90
26757;DHT22;23848;49.798;10.228;2024-02-15T19:15:48;9.40;99.90
26757;DHT22;23848;49.798;10.228;2024-02-15T19:18:21;9.40;99.90
26757;DHT22;23848;49.798;10.228;2024-02-15T19:20:50;9.30;99.90
26757;DHT22;23848;49.798;10.228;2024-02-15T19:23:22;9.20;99.90
26757;DHT22;23848;49.798;10.228;2024-02-15T19:25:50;9.10;99.90
26757;DHT22;23848;49.798;10.228;2024-02-15T19:28:19;9.00;99.90
26757;DHT22;23848;49.798;10.228;2024-02-15T19:30:48;9.00;99.90
26757;DHT22;23848;49.798;10.228;2024-02-15T19:33:16;9.00;99.90
26757;DHT22;23848;49.798;10.228;2024-02-15T19:35:45;9.00;99.90
26757;DHT22;23848;49.798;10.228;2024-02-15T19:38:14;8.90;99.90
26757;DHT22;23848;49.798;10.228;2024-02-15T19:40:42;8.90;99.90
26757;DHT22;23848;49.798;10.228;2024-02-15T19:43:11;8.90;99.90
26757;DHT22;23848;49.798;10.228;2024-02-15T19:45:42;8.80;99.90
26757;DHT22;23848;49.798;10.228;2024-02-15T19:48:12;8.70;99.90
26757;DHT22;23848;49.798;10.228;2024-02-15T19:50:40;8.60;99.90
26757;DHT22;23848;49.798;10.228;2024-02-15T19:53:09;8.60;99.90
26757;DHT22;23848;49.798;10.228;2024-02-15T19:55:37;8.50;99.90
26757;DHT22;23848;49.798;10.228;2024-02-15T19:58:06;8.40;99.90
26757;DHT22;23848;49.798;10.228;2024-02-15T20:00:34;8.50;99.90
26757;DHT22;23848;49.798;10.228;2024-02-15T20:03:03;8.40;99.90
26757;DHT22;23848;49.798;10.228;2024-02-15T20:05:33;8.50;99.90
26757;DHT22;23848;49.798;10.228;2024-02-15T20:08:04;8.40;99.90
26757;DHT22;23848;49.798;10.228;2024-02-15T20:10:34;8.40;99.90
26757;DHT22;23848;49.798;10.228;2024-02-15T20:13:03;8.40;99.90
26757;DHT22;23848;49.798;10.228;2024-02-15T20:15:31;8.30;99.90
26757;DHT22;23848;49.798;10.228;2024-02-15T20:18:08;8.30;99.90
26757;DHT22;23848;49.798;10.228;2024-02-15T20:20:47;8.40;99.90
26757;DHT22;23848;49.798;10.228;2024-02-15T20:23:24;8.30;99.90
26757;DHT22;23848;49.798;10.228;2024-02-15T20:25:52;8.30;99.90
26757;DHT22;23848;49.798;10.228;2024-02-15T20:28:20;8.20;99.90
26757;DHT22;23848;49.798;10.228;2024-02-15T20:30:49;8.20;99.90
26757;DHT22;23848;49.798;10.228;2024-02-15T20:33:17;8.10;99.90
26757;DHT22;23848;49.798;10.228;2024-02-15T20:35:47;8.10;99.90
26757;DHT22;23848;49.798;10.228;2024-02-15T20:38:19;8.10;99.90
26757;DHT22;23848;49.798;10.228;2024-02-15T20:40:49;8.10;99.90
26757;DHT22;23848;49.798;10.228;2024-02-15T20:43:18;8.10;99.90
26757;DHT22;23848;49.798;10.228;2024-02-15T20:45:47;8.20;99.90
26757;DHT22;23848;49.798;10.228;2024-02-15T20:48:16;8.10;99.90
26757;DHT22;23848;49.798;10.228;2024-02-15T20:50:45;8.10;99.90
26757;DHT22;23848;49.798;10.228;2024-02-15T20:53:14;8.10;99.90
26757;DHT22;23848;49.798;10.228;2024-02-15T20:55:42;8.10;99.90
26757;DHT22;23848;49.798;10.228;2024-02-15T20:58:11;8.00;99.90
26757;DHT22;23848;49.798;10.228;2024-02-15T21:00:39;8.00;99.90
26757;DHT22;23848;49.798;10.228;2024-02-15T21:03:08;7.90;99.90
26757;DHT22;23848;49.798;10.228;2024-02-15T21:05:36;7.80;99.90
26757;DHT22;23848;49.798;10.228;2024-02-15T21:08:05;7.80;99.90
26757;DHT22;23848;49.798;10.228;2024-02-15T21:10:35;7.80;99.90
26757;DHT22;23848;49.798;10.228;2024-02-15T21:13:03;7.80;99.90
26757;DHT22;23848;49.798;10.228;2024-02-15T21:15:31;7.80;99.90
26757;DHT22;23848;49.798;10.228;2024-02-15T21:17:59;7.80;99.90
26757;DHT22;23848;49.798;10.228;2024-02-15T21:20:28;7.90;99.90
26757;DHT22;23848;49.798;10.228;2024-02-15T21:23:00;7.90;99.90
26757;DHT22;23848;49.798;10.228;2024-02-15T21:25:32;7.80;99.90
26757;DHT22;23848;49.798;10.228;2024-02-15T21:28:05;7.80;99.90
26757;DHT22;23848;49.798;10.228;2024-02-15T21:30:34;7.80;99.90
26757;DHT22;23848;49.798;10.228;2024-02-15T21:33:03;7.80;99.90
26757;DHT22;23848;49.798;10.228;2024-02-15T21:35:41;7.80;99.90
26757;DHT22;23848;49.798;10.228;2024-02-15T21:38:10;7.80;99.90
26757;DHT22;23848;49.798;10.228;2024-02-15T21:40:38;7.80;99.90
26757;DHT22;23848;49.798;10.228;2024-02-15T21:43:09;7.80;99.90
26757;DHT22;23848;49.798;10.228;2024-02-15T21:45:43;7.70;99.90
26757;DHT22;23848;49.798;10.228;2024-02-15T21:48:11;7.70;99.90
26757;DHT22;23848;49.798;10.228;2024-02-15T21:50:39;7.70;99.90
26757;DHT22;23848;49.798;10.228;2024-02-15T21:53:08;7.70;99.90
26757;DHT22;23848;49.798;10.228;2024-02-15T21:55:36;7.60;99.90
26757;DHT22;23848;49.798;10.228;2024-02-15T21:58:04;7.60;99.90
26757;DHT22;23848;49.798;10.228;2024-02-15T22:00:34;7.60;99.90
26757;DHT22;23848;49.798;10.228;2024-02-15T22:03:03;7.60;99.90
26757;DHT22;23848;49.798;10.228;2024-02-15T22:05:31;7.60;99.90
26757;DHT22;23848;49.798;10.228;2024-02-15T22:07:59;7.60;99.90
26757;DHT22;23848;49.798;10.228;2024-02-15T22:10:27;7.60;99.90
26757;DHT22;23848;49.798;10.228;2024-02-15T22:12:56;7.60;99.90
26757;DHT22;23848;49.798;10.228;2024-02-15T22:15:24;7.60;99.90
26757;DHT22;23848;49.798;10.228;2024-02-15T22:17:53;7.50;99.90
26757;DHT22;23848;49.798;10.228;2024-02-15T22:20:23;7.40;99.90
26757;DHT22;23848;49.798;10.228;2024-02-15T22:22:51;7.40;99.90
26757;DHT22;23848;49.798;10.228;2024-02-15T22:25:22;7.30;99.90
26757;DHT22;23848;49.798;10.228;2024-02-15T22:27:52;7.40;99.90
26757;DHT22;23848;49.798;10.228;2024-02-15T22:30:24;7.40;99.90
26757;DHT22;23848;49.798;10.228;2024-02-15T22:32:55;7.30;99.90
26757;DHT22;23848;49.798;10.228;2024-02-15T22:35:26;7.20;99.90
26757;DHT22;23848;49.798;10.228;2024-02-15T22:37:56;7.20;99.90
26757;DHT22;23848;49.798;10.228;2024-02-15T22:40:24;7.10;99.90
26757;DHT22;23848;49.798;10.228;2024-02-15T22:42:52;7.00;99.90
26757;DHT22;23848;49.798;10.228;2024-02-15T22:45:20;7.10;99.90
26757;DHT22;23848;49.798;10.228;2024-02-15T22:47:48;7.10;99.90
26757;DHT22;23848;49.798;10.228;2024-02-15T22:50:18;7.00;99.90
26757;DHT22;23848;49.798;10.228;2024-02-15T22:52:47;7.00;99.90
26757;DHT22;23848;49.798;10.228;2024-02-15T22:55:16;7.00;99.90
26757;DHT22;23848;49.798;10.228;2024-02-15T22:57:45;7.00;99.90
26757;DHT22;23848;49.798;10.228;2024-02-15T23:00:14;7.10;99.90
26757;DHT22;23848;49.798;10.228;2024-02-15T23:02:45;7.10;99.90
26757;DHT22;23848;49.798;10.228;2024-02-15T23:05:13;7.10;99.90
26757;DHT22;23848;49.798;10.228;2024-02-15T23:07:43;7.00;99.90
26757;DHT22;23848;49.798;10.228;2024-02-15T23:10:12;7.10;99.90
26757;DHT22;23848;49.798;10.228;2024-02-15T23:12:40;7.10;99.90
26757;DHT22;23848;49.798;10.228;2024-02-15T23:15:09;7.10;99.90
26757;DHT22;23848;49.798;10.228;2024-02-15T23:17:40;7.10;99.90
26757;DHT22;23848;49.798;10.228;2024-02-15T23:20:09;7.10;99.90
26757;DHT22;23848;49.798;10.228;2024-02-15T23:22:39;7.10;99.90
26757;DHT22;23848;49.798;10.228;2024-02-15T23:25:10;7.10;99.90
26757;DHT22;23848;49.798;10.228;2024-02-15T23:27:38;7.10;99.90
26757;DHT22;23848;49.798;10.228;2024-02-15T23:30:07;7.10;99.90
26757;DHT22;23848;49.798;10.228;2024-02-15T23:32:37;7.10;99.90
26757;DHT22;23848;49.798;10.228;2024-02-15T23:35:07;7.00;99.90
26757;DHT22;23848;49.798;10.228;2024-02-15T23:37:40;7.10;99.90
26757;DHT22;23848;49.798;10.228;2024-02-15T23:40:27;7.10;99.90
26757;DHT22;23848;49.798;10.228;2024-02-15T23:42:55;7.00;99.90
26757;DHT22;23848;49.798;10.228;2024-02-15T23:45:23;7.00;99.90
26757;DHT22;23848;49.798;10.228;2024-02-15T23:47:52;7.00;99.90
26757;DHT22;23848;49.798;10.228;2024-02-15T23:50:21;7.00;99.90
26757;DHT22;23848;49.798;10.228;2024-02-15T23:52:51;7.00;99.90
26757;DHT22;23848;49.798;10.228;2024-02-15T23:55:20;7.00;99.90
26757;DHT22;23848;49.798;10.228;2024-02-15T23:57:50;7.00;99.90
